Sweeney Granite Mountains, California Weather observations

Data are for 10 minute period ending at time listed.
 Day   Time   Solar   Ave.   Ave.  Ave.  Vector  Max.   Baro.   Total    
  of    of     Rad.   Air    Rel.  Wind   Wind   Wind  Press.  Precip.   
Year   Day            Temp.  Hum.  Speed  Dir.   Gust                    
2015   (PST)  Kw/m2    F      %     mph   deg.    mph    mb.     in.     
-------------------------------------------------------------------------
 110   16:10   0.43   73.7    11    4.4   118    11.6   864.4    0.00 
 110   16:20   0.40   74.1    11    3.7   150    12.5   864.4    0.00 
 110   16:30   0.35   74.0    11    6.1   111    14.2   864.3    0.00 
 110   16:40   0.32   73.6    10    4.6    74    11.5   864.2    0.00 
 110   16:50   0.28   72.6    11    8.5   112    19.1   864.2    0.00 
 110   17:00   0.24   72.0    11   10.2   124    18.0   864.2    0.00 
 110   17:10   0.20   72.2    11    5.1   107    10.7   864.1    0.00 
 110   17:20   0.13   72.4    12    6.0   132    11.4   864.2    0.00 
 110   17:30   0.03   70.3    12    6.6   117    16.4   864.2    0.00 
 110   17:40   0.02   69.9    12    4.7   120    11.8   864.2    0.00 
 110   17:50   0.01   69.1    12    8.4   121    15.9   864.2    0.00 
 110   18:00   0.01   68.5    12    7.2   109    14.2   864.2    0.00 
 110   18:10   0.01   67.9    12    6.7   108    11.7   864.2    0.00 
 110   18:20   0.00   67.0    13    5.6   100     8.6   864.2    0.00 
 110   18:30   0.00   65.9    13    5.7    97     8.0   864.2    0.00 
 110   18:40   0.00   65.8    13    5.5    95     7.7   864.2    0.00 
 110   18:50   0.00   65.4    13    4.4    92     6.9   864.3    0.00 
 110   19:00   0.00   64.8    14    3.9    93     5.6   864.4    0.00 
 110   19:10   0.00   64.6    14    3.4    92     5.8   864.5    0.00 
 110   19:20   0.00   63.9    14    4.0    95     6.1   864.6    0.00 
 110   19:30   0.00   64.6    14    4.1    89     5.4   864.7    0.00 
 110   19:40   0.00   64.1    14    3.8    89     5.6   864.8    0.00 
 110   19:50   0.00   63.6    14    3.0    94     4.9   864.9    0.00 
 110   20:00   0.00   62.8    14    3.3    87     4.8   864.9    0.00 
 110   20:10   0.00   62.8    14    1.2    81     3.6   865.0    0.00 
 110   20:20   0.00   63.2    14    3.4    92     7.7   865.0    0.00 
 110   20:30   0.00   62.8    15    4.1    96     5.7   865.0    0.00 
 110   20:40   0.00   62.0    16    4.1    92     5.8   865.0    0.00 
 110   20:50   0.00   62.6    16    3.1    91     4.7   865.0    0.00 
 110   21:00   0.00   62.0    16    1.6    67     4.2   865.0    0.00 
 110   21:10   0.00   59.9    17    2.5    89     4.0   865.0    0.00 
 110   21:20   0.00   61.0    16    3.1    79     4.5   864.9    0.00 
 110   21:30   0.00   61.6    16    3.2    85     5.1   864.9    0.00 
 110   21:40   0.00   62.0    16    0.9   143     4.0   864.9    0.00 
 110   21:50   0.00   62.6    17    1.7    74     5.3   865.0    0.00 
 110   22:00   0.00   62.2    18    2.1   226     6.6   865.0    0.00 
 110   22:10   0.00   62.6    18    1.5   232     6.9   865.0    0.00 
 110   22:20   0.00   62.7    18    2.3   139     6.9   865.1    0.00 
 110   22:30   0.00   63.1    18    3.3   227     7.8   865.1    0.00 
 110   22:40   0.00   62.9    18    5.0   228     8.6   865.1    0.00 
 110   22:50   0.00   62.6    18    3.2   258     7.5   865.2    0.00 
 110   23:00   0.00   61.7    19    2.3   277     4.1   865.2    0.00 
 110   23:10   0.00   60.6    20    2.1   288     3.4   865.2    0.00 
 110   23:20   0.00   60.2    20    2.5   254     7.0   865.2    0.00 
 110   23:30   0.00   60.0    20    1.7   297     3.4   865.1    0.00 
 110   23:40   0.00   59.3    21    2.4   292     4.9   865.1    0.00 
 110   23:50   0.00   58.9    22    2.8   286     5.1   865.0    0.00 
 111    0:00   0.00   58.4    22    1.9   288     2.9   864.9    0.00 
 111    0:10   0.00   58.1    22    2.5   288     4.5   864.7    0.00 
 111    0:20   0.00   56.6    24    2.5   280     3.7   864.6    0.00 
 111    0:30   0.00   56.2    24    2.3   279     3.8   864.4    0.00 
 111    0:40   0.00   56.1    24    2.4   281     3.7   864.3    0.00 
 111    0:50   0.00   55.9    24    2.6   278     4.2   864.3    0.00 
 111    1:00   0.00   54.6    25    2.9   290     3.9   864.2    0.00 
 111    1:10   0.00   56.4    24    2.7   295     3.7   864.2    0.00 
 111    1:20   0.00   54.6    25    2.2   285     2.9   864.1    0.00 
 111    1:30   0.00   53.2    26    2.4   286     3.3   864.0    0.00 
 111    1:40   0.00   52.1    26    2.0   293     3.3   863.9    0.00 
 111    1:50   0.00   54.6    24    1.6   289     3.7   863.8    0.00 
 111    2:00   0.00   54.5    24    0.6   356     2.0   863.8    0.00 
 111    2:10   0.00   53.4    25    1.3   302     2.7   863.7    0.00 
 111    2:20   0.00   55.6    23    2.4   284     3.6   863.7    0.00 
 111    2:30   0.00   55.1    24    1.4   297     2.3   863.7    0.00 
 111    2:40   0.00   52.4    26    1.4   289     2.3   863.7    0.00 
 111    2:50   0.00   53.5    25    2.4   285     3.7   863.6    0.00 
 111    3:00   0.00   54.9    24    2.7   294     3.5   863.6    0.00 
 111    3:10   0.00   55.2    24    2.6   295     3.1   863.6    0.00 
 111    3:20   0.00   55.1    25    1.6   295     2.3   863.6    0.00 
 111    3:30   0.00   53.6    26    1.8   283     2.3   863.5    0.00 
 111    3:40   0.00   52.2    27    1.3   297     1.7   863.5    0.00 
 111    3:50   0.00   52.4    27    0.4   304     1.5   863.5    0.00 
 111    4:00   0.00   51.6    28    0.4   295     2.0   863.5    0.00 
 111    4:10   0.00   52.7    27    0.7   286     2.1   863.5    0.00 
 111    4:20   0.00   52.2    28    1.1   127     2.9   863.6    0.00 
 111    4:30   0.00   51.6    29    0.9   149     2.8   863.6    0.00 
 111    4:40   0.00   52.1    28    0.7   117     2.2   863.6    0.00 
 111    4:50   0.00   52.3    28    1.4   112     2.3   863.8    0.00 
 111    5:00   0.00   51.6    30    0.3   142     1.5   863.9    0.00 
 111    5:10   0.00   53.0    29    1.1   300     2.5   863.9    0.00 
 111    5:20   0.01   52.6    29    0.3   306     1.8   864.0    0.00 
 111    5:30   0.01   51.8    30    0.8   103     2.4   864.1    0.00 
 111    5:40   0.02   51.8    30    1.1   109     2.4   864.2    0.00 
 111    5:50   0.06   53.5    29    1.4   119     2.8   864.3    0.00 
 111    6:00   0.11   55.9    27    0.9   124     1.8   864.4    0.00 
 111    6:10   0.15   59.4    24    2.0   115     4.4   864.5    0.00 
 111    6:20   0.18   62.5    22    2.9    99     4.8   864.5    0.00 
 111    6:30   0.22   62.2    22    4.4    93     6.1   864.6    0.00 
 111    6:40   0.26   62.4    21    4.4    83     8.1   864.9    0.00 
 111    6:50   0.30   62.2    21    6.6   111    10.7   865.1    0.00 
 111    7:00   0.34   61.7    21    7.5   114    11.0   865.3    0.00 
 111    7:10   0.38   62.7    20    7.5   112    12.9   865.4    0.00 
 111    7:20   0.42   62.7    19    8.1   119    12.1   865.5    0.00 
 111    7:30   0.46   63.3    18    9.6   116    14.2   865.6    0.00 
 111    7:40   0.50   62.7    17   10.8   115    14.7   865.7    0.00 
 111    7:50   0.53   62.9    17   11.0   114    14.8   865.7    0.00 
 111    8:00   0.57   63.4    17    9.3   112    13.3   865.8    0.00 
 111    8:10   0.60   63.1    18    7.7   121    12.9   865.8    0.00 
 111    8:20   0.64   63.1    18    6.0   128    12.3   865.9    0.00 
 111    8:30   0.67   64.1    18    7.2   118    12.5   866.0    0.00 
 111    8:40   0.70   63.8    18    6.8   120    12.7   866.0    0.00 
 111    8:50   0.74   64.0    17    6.8   116    15.6   866.1    0.00 
 111    9:00   0.77   65.2    17    6.7   119    14.0   866.1    0.00 
 111    9:10   0.80   64.4    17    8.9   122    13.9   866.3    0.00 
 111    9:20   0.82   64.0    17   10.0   119    17.8   866.4    0.00 
 111    9:30   0.85   64.5    17    8.1   110    16.1   866.4    0.00 
 111    9:40   0.87   64.1    16    9.3   126    14.8   866.3    0.00 
 111    9:50   0.90   65.1    16    8.6   122    13.8   866.3    0.00 
 111   10:00   0.91   64.6    17    9.1   125    14.2   866.3    0.00 
 111   10:10   0.93   64.7    17    5.4   131    13.1   866.3    0.00 
 111   10:20   0.95   65.8    15    8.7   125    18.6   866.3    0.00 
 111   10:30   0.96   65.1    16    7.7   129    16.9   866.2    0.00 
 111   10:40   0.97   65.6    16    8.0   126    17.3   866.2    0.00 
 111   10:50   0.98   65.9    16    9.5   117    18.6   866.2    0.00 
 111   11:00   0.99   66.3    16    6.5   133    14.5   866.2    0.00 
 111   11:10   0.99   66.8    15    9.1   110    15.9   866.1    0.00 
 111   11:20   1.00   67.0    15   11.0   118    20.0   866.0    0.00 
 111   11:30   1.01   66.9    14    8.7   118    18.4   865.9    0.00 
 111   11:40   1.01   66.7    15    8.1   117    14.2   865.8    0.00 
 111   11:50   1.01   67.4    14   11.5   122    18.6   865.8    0.00 
 111   12:00   1.00   68.0    14   11.5   120    19.3   865.7    0.00 
 111   12:10   1.00   67.7    14    5.9   136    18.0   865.7    0.00 
 111   12:20   1.00   68.8    12   12.2   116    19.5   865.6    0.00 
 111   12:30   0.96   67.7    12    6.3   135    15.2   865.6    0.00 
 111   12:40   0.97   68.2    13    9.7   121    20.0   865.4    0.00 
 111   12:50   0.96   68.6    14    8.3   116    15.9   865.3    0.00 
 111   13:00   0.95   68.9    14    9.7   109    20.0   865.2    0.00 
 111   13:10   0.94   68.6    14   11.2   112    20.3   865.1    0.00 
 111   13:20   0.92   68.8    14    5.1   191    15.3   864.9    0.00 
 111   13:30   0.91   70.3    14    5.7   151    15.8   864.8    0.00 
 111   13:40   0.89   69.2    14   10.6   113    16.0   864.7    0.00 
 111   13:50   0.86   69.4    14    9.3   108    16.8   864.6    0.00 
 111   14:00   0.84   69.1    14    7.9   122    18.8   864.5    0.00 
 111   14:10   0.82   69.8    14    3.7   192    12.8   864.5    0.00 
 111   14:20   0.81   70.0    14   10.0   124    19.1   864.4    0.00 
 111   14:30   0.72   69.6    14    6.8   133    16.4   864.3    0.00 
 111   14:40   0.69   69.0    15    7.0   217    15.9   864.3    0.00 
 111   14:50   0.17   67.0    16    4.7   151    10.9   864.2    0.00 
 111   15:00   0.14   66.4    17    2.6    63     5.3   864.1    0.00 
 111   15:10   0.12   65.9    18    5.0   143    13.4   863.9    0.00 
 111   15:20   0.21   64.1    23   11.5   268    20.6   863.8    0.00 
 111   15:30   0.12   63.6    24   10.0   275    20.6   863.8    0.00 
 111   15:40   0.08   61.9    27   13.3   275    21.4   863.9    0.00 
 111   15:50   0.07   61.6    27   14.8   279    23.1   863.9    0.00 
 111   16:00   0.04   61.4    27   11.5   274    20.0   863.9    0.00 

Return to Sweeney Granite Mountains graphs page.


Western Regional Climate Center,wrcc@dri.edu